sensor_id;sensor_type;location;lat;lon;timestamp;P1;durP1;ratioP1;P2;durP2;ratioP2
16512;SDS011;8369;48.030;11.598;2022-09-16T00:00:48;3.13;;;2.70;;
16512;SDS011;8369;48.030;11.598;2022-09-16T00:03:15;3.50;;;2.57;;
16512;SDS011;8369;48.030;11.598;2022-09-16T00:05:50;2.77;;;2.30;;
16512;SDS011;8369;48.030;11.598;2022-09-16T00:08:18;3.27;;;2.67;;
16512;SDS011;8369;48.030;11.598;2022-09-16T00:10:45;4.57;;;2.60;;
16512;SDS011;8369;48.030;11.598;2022-09-16T00:13:12;3.27;;;2.60;;
16512;SDS011;8369;48.030;11.598;2022-09-16T00:15:45;3.77;;;2.80;;
16512;SDS011;8369;48.030;11.598;2022-09-16T00:18:13;3.50;;;2.73;;
16512;SDS011;8369;48.030;11.598;2022-09-16T00:20:46;4.17;;;2.63;;
16512;SDS011;8369;48.030;11.598;2022-09-16T00:23:13;3.97;;;2.63;;
16512;SDS011;8369;48.030;11.598;2022-09-16T00:25:39;3.57;;;2.80;;
16512;SDS011;8369;48.030;11.598;2022-09-16T00:28:05;4.10;;;2.37;;
16512;SDS011;8369;48.030;11.598;2022-09-16T00:30:31;6.23;;;2.60;;
16512;SDS011;8369;48.030;11.598;2022-09-16T00:32:56;3.33;;;2.20;;
16512;SDS011;8369;48.030;11.598;2022-09-16T00:35:22;4.50;;;2.70;;
16512;SDS011;8369;48.030;11.598;2022-09-16T00:37:48;2.90;;;2.43;;
16512;SDS011;8369;48.030;11.598;2022-09-16T00:40:14;2.67;;;2.47;;
16512;SDS011;8369;48.030;11.598;2022-09-16T00:42:40;2.93;;;2.60;;
16512;SDS011;8369;48.030;11.598;2022-09-16T00:45:26;3.57;;;2.60;;
16512;SDS011;8369;48.030;11.598;2022-09-16T00:48:03;2.50;;;2.30;;
16512;SDS011;8369;48.030;11.598;2022-09-16T00:50:42;3.77;;;2.50;;
16512;SDS011;8369;48.030;11.598;2022-09-16T00:53:16;3.27;;;2.10;;
16512;SDS011;8369;48.030;11.598;2022-09-16T00:55:49;4.03;;;2.60;;
16512;SDS011;8369;48.030;11.598;2022-09-16T00:58:29;5.13;;;3.07;;
16512;SDS011;8369;48.030;11.598;2022-09-16T01:01:01;2.40;;;2.20;;
16512;SDS011;8369;48.030;11.598;2022-09-16T01:03:30;4.23;;;2.77;;
16512;SDS011;8369;48.030;11.598;2022-09-16T01:06:03;5.80;;;2.30;;
16512;SDS011;8369;48.030;11.598;2022-09-16T01:08:30;3.27;;;2.60;;
16512;SDS011;8369;48.030;11.598;2022-09-16T01:10:58;2.80;;;2.53;;
16512;SDS011;8369;48.030;11.598;2022-09-16T01:13:24;3.13;;;2.47;;
16512;SDS011;8369;48.030;11.598;2022-09-16T01:15:54;4.87;;;2.30;;
16512;SDS011;8369;48.030;11.598;2022-09-16T01:19:19;2.90;;;2.43;;
16512;SDS011;8369;48.030;11.598;2022-09-16T01:21:32;3.47;;;2.87;;
16512;SDS011;8369;48.030;11.598;2022-09-16T01:24:11;2.83;;;2.40;;
16512;SDS011;8369;48.030;11.598;2022-09-16T01:27:06;3.40;;;2.50;;
16512;SDS011;8369;48.030;11.598;2022-09-16T01:37:51;6.80;;;3.60;;
16512;SDS011;8369;48.030;11.598;2022-09-16T01:40:47;6.20;;;3.00;;
16512;SDS011;8369;48.030;11.598;2022-09-16T01:46:32;3.97;;;2.57;;
16512;SDS011;8369;48.030;11.598;2022-09-16T02:00:06;3.70;;;2.90;;
16512;SDS011;8369;48.030;11.598;2022-09-16T02:02:43;3.27;;;2.67;;
16512;SDS011;8369;48.030;11.598;2022-09-16T02:05:16;5.57;;;2.63;;
16512;SDS011;8369;48.030;11.598;2022-09-16T02:07:51;3.37;;;2.73;;
16512;SDS011;8369;48.030;11.598;2022-09-16T02:10:31;3.80;;;2.70;;
16512;SDS011;8369;48.030;11.598;2022-09-16T02:13:11;3.20;;;2.60;;
16512;SDS011;8369;48.030;11.598;2022-09-16T02:16:02;3.93;;;3.10;;
16512;SDS011;8369;48.030;11.598;2022-09-16T02:18:33;2.90;;;2.60;;
16512;SDS011;8369;48.030;11.598;2022-09-16T02:21:04;4.97;;;3.10;;
16512;SDS011;8369;48.030;11.598;2022-09-16T02:23:33;3.97;;;3.10;;
16512;SDS011;8369;48.030;11.598;2022-09-16T02:26:05;3.33;;;2.83;;
16512;SDS011;8369;48.030;11.598;2022-09-16T02:28:37;5.13;;;2.83;;
16512;SDS011;8369;48.030;11.598;2022-09-16T02:31:06;3.07;;;2.50;;
16512;SDS011;8369;48.030;11.598;2022-09-16T02:33:35;3.90;;;2.73;;
16512;SDS011;8369;48.030;11.598;2022-09-16T02:36:16;4.23;;;2.90;;
16512;SDS011;8369;48.030;11.598;2022-09-16T02:38:45;3.67;;;2.80;;
16512;SDS011;8369;48.030;11.598;2022-09-16T02:41:33;3.13;;;2.70;;
16512;SDS011;8369;48.030;11.598;2022-09-16T02:44:00;2.60;;;2.20;;
16512;SDS011;8369;48.030;11.598;2022-09-16T02:46:38;3.60;;;2.90;;
16512;SDS011;8369;48.030;11.598;2022-09-16T02:49:11;3.70;;;2.90;;
16512;SDS011;8369;48.030;11.598;2022-09-16T02:52:12;3.53;;;2.60;;
16512;SDS011;8369;48.030;11.598;2022-09-16T02:57:11;3.00;;;2.60;;
16512;SDS011;8369;48.030;11.598;2022-09-16T02:59:38;3.57;;;3.03;;
16512;SDS011;8369;48.030;11.598;2022-09-16T03:02:07;3.60;;;2.87;;
16512;SDS011;8369;48.030;11.598;2022-09-16T03:04:34;4.00;;;2.93;;
16512;SDS011;8369;48.030;11.598;2022-09-16T03:07:00;4.20;;;3.10;;
16512;SDS011;8369;48.030;11.598;2022-09-16T03:09:29;6.10;;;3.00;;
16512;SDS011;8369;48.030;11.598;2022-09-16T03:12:01;3.50;;;2.70;;
16512;SDS011;8369;48.030;11.598;2022-09-16T03:25:54;3.40;;;2.70;;
16512;SDS011;8369;48.030;11.598;2022-09-16T03:31:31;5.10;;;3.40;;
16512;SDS011;8369;48.030;11.598;2022-09-16T03:36:46;7.20;;;3.40;;
16512;SDS011;8369;48.030;11.598;2022-09-16T03:39:19;3.23;;;2.93;;
16512;SDS011;8369;48.030;11.598;2022-09-16T03:41:49;3.87;;;3.10;;
16512;SDS011;8369;48.030;11.598;2022-09-16T03:44:18;4.93;;;2.97;;
16512;SDS011;8369;48.030;11.598;2022-09-16T03:46:52;7.50;;;3.30;;
16512;SDS011;8369;48.030;11.598;2022-09-16T03:49:17;4.10;;;3.20;;
16512;SDS011;8369;48.030;11.598;2022-09-16T03:51:43;5.40;;;3.50;;
16512;SDS011;8369;48.030;11.598;2022-09-16T03:54:13;3.53;;;3.07;;
16512;SDS011;8369;48.030;11.598;2022-09-16T03:56:41;4.97;;;3.40;;
16512;SDS011;8369;48.030;11.598;2022-09-16T03:59:07;7.17;;;3.37;;
16512;SDS011;8369;48.030;11.598;2022-09-16T04:01:39;6.00;;;3.20;;
16512;SDS011;8369;48.030;11.598;2022-09-16T04:04:05;3.90;;;3.43;;
16512;SDS011;8369;48.030;11.598;2022-09-16T04:06:33;6.77;;;3.40;;
16512;SDS011;8369;48.030;11.598;2022-09-16T04:09:02;5.10;;;3.53;;
16512;SDS011;8369;48.030;11.598;2022-09-16T04:11:45;3.90;;;3.30;;
16512;SDS011;8369;48.030;11.598;2022-09-16T04:14:14;4.57;;;3.40;;
16512;SDS011;8369;48.030;11.598;2022-09-16T04:16:42;3.57;;;3.23;;
16512;SDS011;8369;48.030;11.598;2022-09-16T04:19:11;5.27;;;3.40;;
16512;SDS011;8369;48.030;11.598;2022-09-16T04:21:45;6.40;;;3.97;;
16512;SDS011;8369;48.030;11.598;2022-09-16T04:24:11;4.77;;;3.50;;
16512;SDS011;8369;48.030;11.598;2022-09-16T04:26:48;5.47;;;3.43;;
16512;SDS011;8369;48.030;11.598;2022-09-16T04:29:14;4.40;;;3.83;;
16512;SDS011;8369;48.030;11.598;2022-09-16T04:31:46;3.90;;;3.50;;
16512;SDS011;8369;48.030;11.598;2022-09-16T04:34:14;5.27;;;3.80;;
16512;SDS011;8369;48.030;11.598;2022-09-16T04:36:42;4.00;;;3.13;;
16512;SDS011;8369;48.030;11.598;2022-09-16T04:39:10;4.80;;;3.43;;
16512;SDS011;8369;48.030;11.598;2022-09-16T04:41:36;3.90;;;3.40;;
16512;SDS011;8369;48.030;11.598;2022-09-16T04:44:14;6.17;;;3.97;;
16512;SDS011;8369;48.030;11.598;2022-09-16T04:46:42;6.17;;;3.73;;
16512;SDS011;8369;48.030;11.598;2022-09-16T04:49:09;4.60;;;3.87;;
16512;SDS011;8369;48.030;11.598;2022-09-16T04:51:37;4.63;;;3.63;;
16512;SDS011;8369;48.030;11.598;2022-09-16T04:54:08;7.83;;;4.07;;
16512;SDS011;8369;48.030;11.598;2022-09-16T04:56:36;5.67;;;3.67;;
16512;SDS011;8369;48.030;11.598;2022-09-16T04:59:03;4.63;;;3.50;;
16512;SDS011;8369;48.030;11.598;2022-09-16T05:01:34;5.40;;;3.27;;
16512;SDS011;8369;48.030;11.598;2022-09-16T05:04:06;4.50;;;3.47;;
16512;SDS011;8369;48.030;11.598;2022-09-16T05:06:38;4.30;;;3.63;;
16512;SDS011;8369;48.030;11.598;2022-09-16T05:09:13;5.90;;;3.57;;
16512;SDS011;8369;48.030;11.598;2022-09-16T05:11:41;4.40;;;3.50;;
16512;SDS011;8369;48.030;11.598;2022-09-16T05:14:13;5.17;;;3.77;;
16512;SDS011;8369;48.030;11.598;2022-09-16T05:16:48;5.27;;;4.00;;
16512;SDS011;8369;48.030;11.598;2022-09-16T05:19:17;7.10;;;3.80;;
16512;SDS011;8369;48.030;11.598;2022-09-16T05:21:46;6.37;;;3.20;;
16512;SDS011;8369;48.030;11.598;2022-09-16T05:24:12;3.97;;;3.23;;
16512;SDS011;8369;48.030;11.598;2022-09-16T05:26:41;5.47;;;3.70;;
16512;SDS011;8369;48.030;11.598;2022-09-16T05:29:13;4.17;;;3.33;;
16512;SDS011;8369;48.030;11.598;2022-09-16T05:31:42;4.87;;;3.30;;
16512;SDS011;8369;48.030;11.598;2022-09-16T05:34:18;4.90;;;3.60;;
16512;SDS011;8369;48.030;11.598;2022-09-16T05:36:50;5.63;;;3.70;;
16512;SDS011;8369;48.030;11.598;2022-09-16T05:39:20;8.27;;;4.03;;
16512;SDS011;8369;48.030;11.598;2022-09-16T05:41:49;4.80;;;3.97;;
16512;SDS011;8369;48.030;11.598;2022-09-16T05:44:21;5.00;;;3.30;;
16512;SDS011;8369;48.030;11.598;2022-09-16T05:46:48;4.40;;;3.73;;
16512;SDS011;8369;48.030;11.598;2022-09-16T05:49:38;6.90;;;3.80;;
16512;SDS011;8369;48.030;11.598;2022-09-16T05:52:06;8.07;;;3.33;;
16512;SDS011;8369;48.030;11.598;2022-09-16T05:54:35;4.30;;;3.30;;
16512;SDS011;8369;48.030;11.598;2022-09-16T05:57:01;4.97;;;3.53;;
16512;SDS011;8369;48.030;11.598;2022-09-16T05:59:32;5.70;;;3.73;;
16512;SDS011;8369;48.030;11.598;2022-09-16T06:02:00;6.33;;;3.73;;
16512;SDS011;8369;48.030;11.598;2022-09-16T06:04:27;5.50;;;3.70;;
16512;SDS011;8369;48.030;11.598;2022-09-16T06:06:52;4.47;;;3.40;;
16512;SDS011;8369;48.030;11.598;2022-09-16T06:09:22;9.70;;;4.33;;
16512;SDS011;8369;48.030;11.598;2022-09-16T06:11:51;4.57;;;3.63;;
16512;SDS011;8369;48.030;11.598;2022-09-16T06:14:26;7.37;;;3.70;;
16512;SDS011;8369;48.030;11.598;2022-09-16T06:16:57;3.90;;;3.50;;
16512;SDS011;8369;48.030;11.598;2022-09-16T06:19:27;4.97;;;3.97;;
16512;SDS011;8369;48.030;11.598;2022-09-16T06:21:53;7.17;;;3.70;;
16512;SDS011;8369;48.030;11.598;2022-09-16T06:24:26;4.90;;;3.80;;
16512;SDS011;8369;48.030;11.598;2022-09-16T06:26:57;6.33;;;3.97;;
16512;SDS011;8369;48.030;11.598;2022-09-16T06:29:23;5.60;;;3.80;;
16512;SDS011;8369;48.030;11.598;2022-09-16T06:31:57;7.60;;;4.00;;
16512;SDS011;8369;48.030;11.598;2022-09-16T06:34:26;3.90;;;3.50;;
16512;SDS011;8369;48.030;11.598;2022-09-16T06:36:57;5.27;;;3.90;;
16512;SDS011;8369;48.030;11.598;2022-09-16T06:39:24;4.53;;;3.67;;
16512;SDS011;8369;48.030;11.598;2022-09-16T06:41:50;5.90;;;3.90;;
16512;SDS011;8369;48.030;11.598;2022-09-16T06:44:19;8.07;;;3.63;;
16512;SDS011;8369;48.030;11.598;2022-09-16T06:46:44;4.60;;;3.83;;
16512;SDS011;8369;48.030;11.598;2022-09-16T06:49:17;5.37;;;3.80;;
16512;SDS011;8369;48.030;11.598;2022-09-16T06:51:44;6.07;;;4.07;;
16512;SDS011;8369;48.030;11.598;2022-09-16T06:54:15;9.70;;;4.07;;
16512;SDS011;8369;48.030;11.598;2022-09-16T06:56:55;8.67;;;3.97;;
16512;SDS011;8369;48.030;11.598;2022-09-16T06:59:26;6.20;;;4.27;;
16512;SDS011;8369;48.030;11.598;2022-09-16T07:01:58;6.30;;;3.77;;
16512;SDS011;8369;48.030;11.598;2022-09-16T07:04:27;6.73;;;3.93;;
16512;SDS011;8369;48.030;11.598;2022-09-16T07:07:00;7.00;;;4.00;;
16512;SDS011;8369;48.030;11.598;2022-09-16T07:09:29;5.80;;;4.30;;
16512;SDS011;8369;48.030;11.598;2022-09-16T07:11:58;7.13;;;4.07;;
16512;SDS011;8369;48.030;11.598;2022-09-16T07:14:27;5.17;;;4.27;;
16512;SDS011;8369;48.030;11.598;2022-09-16T07:16:56;6.30;;;4.67;;
16512;SDS011;8369;48.030;11.598;2022-09-16T07:19:26;5.33;;;4.27;;
16512;SDS011;8369;48.030;11.598;2022-09-16T07:21:52;6.13;;;4.47;;
16512;SDS011;8369;48.030;11.598;2022-09-16T07:24:29;8.07;;;4.87;;
16512;SDS011;8369;48.030;11.598;2022-09-16T07:27:09;6.90;;;5.27;;
16512;SDS011;8369;48.030;11.598;2022-09-16T07:29:35;6.33;;;4.57;;
16512;SDS011;8369;48.030;11.598;2022-09-16T07:32:00;7.10;;;4.73;;
16512;SDS011;8369;48.030;11.598;2022-09-16T07:34:29;8.40;;;4.80;;
16512;SDS011;8369;48.030;11.598;2022-09-16T07:36:58;7.73;;;4.87;;
16512;SDS011;8369;48.030;11.598;2022-09-16T07:39:24;8.07;;;4.70;;
16512;SDS011;8369;48.030;11.598;2022-09-16T07:41:50;7.57;;;4.33;;
16512;SDS011;8369;48.030;11.598;2022-09-16T07:44:17;7.13;;;4.50;;
16512;SDS011;8369;48.030;11.598;2022-09-16T07:46:44;8.47;;;4.97;;
16512;SDS011;8369;48.030;11.598;2022-09-16T07:49:13;8.43;;;5.33;;
16512;SDS011;8369;48.030;11.598;2022-09-16T07:51:39;10.43;;;6.53;;
16512;SDS011;8369;48.030;11.598;2022-09-16T07:54:07;12.40;;;5.90;;
16512;SDS011;8369;48.030;11.598;2022-09-16T07:56:36;4.97;;;3.97;;
16512;SDS011;8369;48.030;11.598;2022-09-16T07:59:05;8.77;;;5.03;;
16512;SDS011;8369;48.030;11.598;2022-09-16T08:01:32;6.47;;;5.10;;
16512;SDS011;8369;48.030;11.598;2022-09-16T08:03:59;6.63;;;5.20;;
16512;SDS011;8369;48.030;11.598;2022-09-16T08:06:27;6.63;;;5.20;;
16512;SDS011;8369;48.030;11.598;2022-09-16T08:08:55;7.73;;;4.47;;
16512;SDS011;8369;48.030;11.598;2022-09-16T08:11:26;9.23;;;4.90;;
16512;SDS011;8369;48.030;11.598;2022-09-16T08:13:58;6.17;;;4.60;;
16512;SDS011;8369;48.030;11.598;2022-09-16T08:16:25;6.70;;;4.70;;
16512;SDS011;8369;48.030;11.598;2022-09-16T08:18:53;6.87;;;4.87;;
16512;SDS011;8369;48.030;11.598;2022-09-16T08:21:22;7.20;;;4.43;;
16512;SDS011;8369;48.030;11.598;2022-09-16T08:23:49;8.17;;;4.23;;
16512;SDS011;8369;48.030;11.598;2022-09-16T08:26:16;11.07;;;5.40;;
16512;SDS011;8369;48.030;11.598;2022-09-16T08:28:44;7.33;;;5.40;;
16512;SDS011;8369;48.030;11.598;2022-09-16T08:31:11;6.57;;;4.83;;
16512;SDS011;8369;48.030;11.598;2022-09-16T08:33:38;7.77;;;4.90;;
16512;SDS011;8369;48.030;11.598;2022-09-16T08:36:08;7.37;;;4.87;;
16512;SDS011;8369;48.030;11.598;2022-09-16T08:38:44;6.57;;;4.87;;
16512;SDS011;8369;48.030;11.598;2022-09-16T08:41:25;5.90;;;4.67;;
16512;SDS011;8369;48.030;11.598;2022-09-16T08:46:54;5.67;;;4.33;;
16512;SDS011;8369;48.030;11.598;2022-09-16T08:52:10;5.57;;;4.10;;
16512;SDS011;8369;48.030;11.598;2022-09-16T08:54:41;7.20;;;4.70;;
16512;SDS011;8369;48.030;11.598;2022-09-16T08:57:12;9.00;;;4.53;;
16512;SDS011;8369;48.030;11.598;2022-09-16T08:59:47;5.47;;;4.30;;
16512;SDS011;8369;48.030;11.598;2022-09-16T09:02:25;6.43;;;4.83;;
16512;SDS011;8369;48.030;11.598;2022-09-16T09:04:52;8.60;;;5.03;;
16512;SDS011;8369;48.030;11.598;2022-09-16T09:07:27;6.47;;;4.97;;
16512;SDS011;8369;48.030;11.598;2022-09-16T09:15:53;7.10;;;4.40;;
16512;SDS011;8369;48.030;11.598;2022-09-16T09:26:20;5.87;;;4.63;;
16512;SDS011;8369;48.030;11.598;2022-09-16T09:32:06;5.87;;;4.43;;
16512;SDS011;8369;48.030;11.598;2022-09-16T09:34:46;7.77;;;4.60;;
16512;SDS011;8369;48.030;11.598;2022-09-16T09:42:47;4.87;;;4.27;;
16512;SDS011;8369;48.030;11.598;2022-09-16T09:48:03;8.33;;;5.07;;
16512;SDS011;8369;48.030;11.598;2022-09-16T09:50:44;8.47;;;5.27;;
16512;SDS011;8369;48.030;11.598;2022-09-16T09:56:03;6.90;;;4.50;;
16512;SDS011;8369;48.030;11.598;2022-09-16T10:01:55;7.37;;;4.73;;
16512;SDS011;8369;48.030;11.598;2022-09-16T10:04:25;7.20;;;5.03;;
16512;SDS011;8369;48.030;11.598;2022-09-16T10:06:53;7.97;;;4.40;;
16512;SDS011;8369;48.030;11.598;2022-09-16T10:09:21;5.80;;;4.73;;
16512;SDS011;8369;48.030;11.598;2022-09-16T10:11:51;4.87;;;4.33;;
16512;SDS011;8369;48.030;11.598;2022-09-16T10:14:29;14.13;;;5.30;;
16512;SDS011;8369;48.030;11.598;2022-09-16T10:17:01;9.37;;;5.00;;
16512;SDS011;8369;48.030;11.598;2022-09-16T10:19:34;8.53;;;5.13;;
16512;SDS011;8369;48.030;11.598;2022-09-16T10:22:21;6.03;;;4.80;;
16512;SDS011;8369;48.030;11.598;2022-09-16T10:24:59;6.60;;;4.60;;
16512;SDS011;8369;48.030;11.598;2022-09-16T10:27:56;6.63;;;4.70;;
16512;SDS011;8369;48.030;11.598;2022-09-16T10:30:25;5.60;;;4.40;;
16512;SDS011;8369;48.030;11.598;2022-09-16T10:35:38;5.80;;;4.77;;
16512;SDS011;8369;48.030;11.598;2022-09-16T10:40:55;5.97;;;4.77;;
16512;SDS011;8369;48.030;11.598;2022-09-16T10:43:28;8.63;;;4.67;;
16512;SDS011;8369;48.030;11.598;2022-09-16T10:45:55;7.30;;;4.83;;
16512;SDS011;8369;48.030;11.598;2022-09-16T10:48:24;5.73;;;4.23;;
16512;SDS011;8369;48.030;11.598;2022-09-16T10:50:56;6.37;;;4.50;;
16512;SDS011;8369;48.030;11.598;2022-09-16T10:53:38;5.53;;;4.20;;
16512;SDS011;8369;48.030;11.598;2022-09-16T10:56:05;5.90;;;4.40;;
16512;SDS011;8369;48.030;11.598;2022-09-16T10:58:40;5.93;;;4.07;;
16512;SDS011;8369;48.030;11.598;2022-09-16T11:06:44;5.07;;;4.00;;
16512;SDS011;8369;48.030;11.598;2022-09-16T11:22:52;7.00;;;3.60;;
16512;SDS011;8369;48.030;11.598;2022-09-16T11:26:09;4.50;;;3.03;;
16512;SDS011;8369;48.030;11.598;2022-09-16T11:35:07;4.60;;;3.00;;
16512;SDS011;8369;48.030;11.598;2022-09-16T11:40:29;5.97;;;3.80;;
16512;SDS011;8369;48.030;11.598;2022-09-16T11:46:06;6.90;;;4.33;;
16512;SDS011;8369;48.030;11.598;2022-09-16T11:49:08;4.97;;;4.00;;
16512;SDS011;8369;48.030;11.598;2022-09-16T11:52:15;3.97;;;3.40;;
16512;SDS011;8369;48.030;11.598;2022-09-16T11:58:17;6.70;;;3.70;;
16512;SDS011;8369;48.030;11.598;2022-09-16T12:01:08;13.10;;;4.00;;
16512;SDS011;8369;48.030;11.598;2022-09-16T12:03:47;5.13;;;3.20;;
16512;SDS011;8369;48.030;11.598;2022-09-16T12:06:23;4.57;;;3.27;;
16512;SDS011;8369;48.030;11.598;2022-09-16T12:09:08;3.80;;;2.70;;
16512;SDS011;8369;48.030;11.598;2022-09-16T12:11:44;4.17;;;3.03;;
16512;SDS011;8369;48.030;11.598;2022-09-16T12:14:57;4.20;;;2.93;;
16512;SDS011;8369;48.030;11.598;2022-09-16T12:19:43;3.37;;;2.90;;
16512;SDS011;8369;48.030;11.598;2022-09-16T12:25:13;4.43;;;3.13;;
16512;SDS011;8369;48.030;11.598;2022-09-16T12:27:59;3.37;;;2.43;;
16512;SDS011;8369;48.030;11.598;2022-09-16T12:30:38;5.57;;;3.20;;
16512;SDS011;8369;48.030;11.598;2022-09-16T12:38:14;4.77;;;2.40;;
16512;SDS011;8369;48.030;11.598;2022-09-16T13:02:51;4.13;;;2.60;;
16512;SDS011;8369;48.030;11.598;2022-09-16T13:05:27;4.53;;;2.80;;
16512;SDS011;8369;48.030;11.598;2022-09-16T13:07:57;4.23;;;2.70;;
16512;SDS011;8369;48.030;11.598;2022-09-16T13:10:30;5.50;;;2.30;;
16512;SDS011;8369;48.030;11.598;2022-09-16T13:13:00;3.93;;;2.20;;
16512;SDS011;8369;48.030;11.598;2022-09-16T13:15:31;3.53;;;2.27;;
16512;SDS011;8369;48.030;11.598;2022-09-16T13:18:09;5.47;;;2.60;;
16512;SDS011;8369;48.030;11.598;2022-09-16T13:20:48;3.20;;;2.47;;
16512;SDS011;8369;48.030;11.598;2022-09-16T13:23:18;2.43;;;2.23;;
16512;SDS011;8369;48.030;11.598;2022-09-16T13:26:01;3.43;;;2.43;;
16512;SDS011;8369;48.030;11.598;2022-09-16T13:33:35;4.07;;;2.10;;
16512;SDS011;8369;48.030;11.598;2022-09-16T13:41:39;2.47;;;2.10;;
16512;SDS011;8369;48.030;11.598;2022-09-16T13:52:23;2.43;;;2.03;;
16512;SDS011;8369;48.030;11.598;2022-09-16T13:54:53;3.13;;;2.40;;
16512;SDS011;8369;48.030;11.598;2022-09-16T14:00:20;3.70;;;2.47;;
16512;SDS011;8369;48.030;11.598;2022-09-16T14:08:52;4.70;;;2.43;;
16512;SDS011;8369;48.030;11.598;2022-09-16T14:11:40;2.67;;;2.23;;
16512;SDS011;8369;48.030;11.598;2022-09-16T14:14:18;2.00;;;1.80;;
16512;SDS011;8369;48.030;11.598;2022-09-16T14:16:47;3.50;;;2.17;;
16512;SDS011;8369;48.030;11.598;2022-09-16T14:19:23;2.17;;;1.90;;
16512;SDS011;8369;48.030;11.598;2022-09-16T14:22:05;2.83;;;2.00;;
16512;SDS011;8369;48.030;11.598;2022-09-16T14:24:43;2.13;;;1.90;;
16512;SDS011;8369;48.030;11.598;2022-09-16T14:27:29;2.00;;;1.73;;
16512;SDS011;8369;48.030;11.598;2022-09-16T14:30:03;2.17;;;1.97;;
16512;SDS011;8369;48.030;11.598;2022-09-16T14:32:37;2.47;;;2.03;;
16512;SDS011;8369;48.030;11.598;2022-09-16T14:35:19;3.37;;;2.10;;
16512;SDS011;8369;48.030;11.598;2022-09-16T14:37:49;2.30;;;2.10;;
16512;SDS011;8369;48.030;11.598;2022-09-16T14:40:18;2.80;;;2.20;;
16512;SDS011;8369;48.030;11.598;2022-09-16T14:42:58;3.57;;;2.23;;
16512;SDS011;8369;48.030;11.598;2022-09-16T14:45:28;4.07;;;2.47;;
16512;SDS011;8369;48.030;11.598;2022-09-16T14:47:56;2.77;;;2.27;;
16512;SDS011;8369;48.030;11.598;2022-09-16T14:50:30;2.07;;;1.60;;
16512;SDS011;8369;48.030;11.598;2022-09-16T14:53:22;3.13;;;2.23;;
16512;SDS011;8369;48.030;11.598;2022-09-16T14:55:56;3.40;;;1.90;;
16512;SDS011;8369;48.030;11.598;2022-09-16T14:58:24;2.57;;;2.10;;
16512;SDS011;8369;48.030;11.598;2022-09-16T15:01:13;3.93;;;1.90;;
16512;SDS011;8369;48.030;11.598;2022-09-16T15:04:29;3.93;;;2.40;;
16512;SDS011;8369;48.030;11.598;2022-09-16T15:06:51;2.67;;;2.20;;
16512;SDS011;8369;48.030;11.598;2022-09-16T15:09:36;3.60;;;2.63;;
16512;SDS011;8369;48.030;11.598;2022-09-16T15:12:12;2.73;;;2.30;;
16512;SDS011;8369;48.030;11.598;2022-09-16T15:14:47;2.77;;;2.40;;
16512;SDS011;8369;48.030;11.598;2022-09-16T15:17:15;2.90;;;2.10;;
16512;SDS011;8369;48.030;11.598;2022-09-16T15:19:46;3.03;;;2.10;;
16512;SDS011;8369;48.030;11.598;2022-09-16T15:22:16;3.73;;;2.30;;
16512;SDS011;8369;48.030;11.598;2022-09-16T15:24:50;3.30;;;2.10;;
16512;SDS011;8369;48.030;11.598;2022-09-16T15:27:23;3.80;;;2.00;;
16512;SDS011;8369;48.030;11.598;2022-09-16T15:29:56;5.07;;;2.33;;
16512;SDS011;8369;48.030;11.598;2022-09-16T15:32:26;2.70;;;2.50;;
16512;SDS011;8369;48.030;11.598;2022-09-16T15:37:36;3.80;;;2.60;;
16512;SDS011;8369;48.030;11.598;2022-09-16T15:40:07;2.80;;;2.50;;
16512;SDS011;8369;48.030;11.598;2022-09-16T15:42:41;3.63;;;2.80;;
16512;SDS011;8369;48.030;11.598;2022-09-16T15:45:12;2.37;;;2.13;;
16512;SDS011;8369;48.030;11.598;2022-09-16T15:47:50;2.67;;;2.03;;
16512;SDS011;8369;48.030;11.598;2022-09-16T15:50:22;3.07;;;2.50;;
16512;SDS011;8369;48.030;11.598;2022-09-16T15:55:25;3.77;;;2.30;;
16512;SDS011;8369;48.030;11.598;2022-09-16T15:58:29;3.13;;;2.30;;
16512;SDS011;8369;48.030;11.598;2022-09-16T16:01:02;3.57;;;2.43;;
16512;SDS011;8369;48.030;11.598;2022-09-16T16:06:09;2.47;;;2.27;;
16512;SDS011;8369;48.030;11.598;2022-09-16T16:08:41;3.63;;;2.40;;
16512;SDS011;8369;48.030;11.598;2022-09-16T16:11:16;2.63;;;2.13;;
16512;SDS011;8369;48.030;11.598;2022-09-16T16:13:44;3.33;;;2.27;;
16512;SDS011;8369;48.030;11.598;2022-09-16T16:16:11;2.50;;;2.20;;
16512;SDS011;8369;48.030;11.598;2022-09-16T16:18:39;4.83;;;3.47;;
16512;SDS011;8369;48.030;11.598;2022-09-16T16:21:09;3.83;;;3.13;;
16512;SDS011;8369;48.030;11.598;2022-09-16T16:23:37;5.10;;;4.00;;
16512;SDS011;8369;48.030;11.598;2022-09-16T16:26:04;4.23;;;3.43;;
16512;SDS011;8369;48.030;11.598;2022-09-16T16:28:31;4.00;;;3.17;;
16512;SDS011;8369;48.030;11.598;2022-09-16T16:31:13;6.43;;;4.47;;
16512;SDS011;8369;48.030;11.598;2022-09-16T16:33:41;5.47;;;3.33;;
16512;SDS011;8369;48.030;11.598;2022-09-16T16:36:08;4.17;;;2.83;;
16512;SDS011;8369;48.030;11.598;2022-09-16T16:38:59;4.93;;;2.87;;
16512;SDS011;8369;48.030;11.598;2022-09-16T16:41:25;5.10;;;3.27;;
16512;SDS011;8369;48.030;11.598;2022-09-16T16:43:50;3.03;;;2.60;;
16512;SDS011;8369;48.030;11.598;2022-09-16T16:46:16;4.57;;;3.00;;
16512;SDS011;8369;48.030;11.598;2022-09-16T16:48:45;3.73;;;3.00;;
16512;SDS011;8369;48.030;11.598;2022-09-16T16:51:11;3.27;;;2.60;;
16512;SDS011;8369;48.030;11.598;2022-09-16T16:53:40;4.57;;;2.97;;
16512;SDS011;8369;48.030;11.598;2022-09-16T16:56:07;3.23;;;2.87;;
16512;SDS011;8369;48.030;11.598;2022-09-16T16:58:35;4.20;;;3.23;;
16512;SDS011;8369;48.030;11.598;2022-09-16T17:03:34;3.57;;;2.80;;
16512;SDS011;8369;48.030;11.598;2022-09-16T17:06:00;5.83;;;3.00;;
16512;SDS011;8369;48.030;11.598;2022-09-16T17:08:26;6.00;;;3.23;;
16512;SDS011;8369;48.030;11.598;2022-09-16T17:11:25;5.03;;;3.50;;
16512;SDS011;8369;48.030;11.598;2022-09-16T17:13:45;3.50;;;3.07;;
16512;SDS011;8369;48.030;11.598;2022-09-16T17:16:15;3.50;;;3.00;;
16512;SDS011;8369;48.030;11.598;2022-09-16T17:18:43;3.40;;;2.87;;
16512;SDS011;8369;48.030;11.598;2022-09-16T17:23:36;5.00;;;2.87;;
16512;SDS011;8369;48.030;11.598;2022-09-16T17:26:03;4.03;;;2.87;;
16512;SDS011;8369;48.030;11.598;2022-09-16T17:28:29;3.33;;;2.90;;
16512;SDS011;8369;48.030;11.598;2022-09-16T17:30:56;3.07;;;2.67;;
16512;SDS011;8369;48.030;11.598;2022-09-16T17:33:22;3.30;;;3.00;;
16512;SDS011;8369;48.030;11.598;2022-09-16T17:35:58;4.00;;;2.90;;
16512;SDS011;8369;48.030;11.598;2022-09-16T17:38:29;3.07;;;2.70;;
16512;SDS011;8369;48.030;11.598;2022-09-16T17:41:02;4.17;;;3.13;;
16512;SDS011;8369;48.030;11.598;2022-09-16T17:43:30;3.03;;;2.73;;
16512;SDS011;8369;48.030;11.598;2022-09-16T17:45:57;4.67;;;3.03;;
16512;SDS011;8369;48.030;11.598;2022-09-16T17:48:24;5.53;;;3.03;;
16512;SDS011;8369;48.030;11.598;2022-09-16T17:50:50;3.83;;;2.70;;
16512;SDS011;8369;48.030;11.598;2022-09-16T17:53:17;4.73;;;2.80;;
16512;SDS011;8369;48.030;11.598;2022-09-16T17:55:43;4.07;;;3.10;;
16512;SDS011;8369;48.030;11.598;2022-09-16T17:58:09;4.20;;;3.20;;
16512;SDS011;8369;48.030;11.598;2022-09-16T18:00:36;3.70;;;3.10;;
16512;SDS011;8369;48.030;11.598;2022-09-16T18:03:02;5.00;;;3.57;;
16512;SDS011;8369;48.030;11.598;2022-09-16T18:05:31;4.20;;;3.40;;
16512;SDS011;8369;48.030;11.598;2022-09-16T18:07:58;4.30;;;3.33;;
16512;SDS011;8369;48.030;11.598;2022-09-16T18:10:24;4.10;;;3.07;;
16512;SDS011;8369;48.030;11.598;2022-09-16T18:12:50;5.27;;;3.30;;
16512;SDS011;8369;48.030;11.598;2022-09-16T18:15:16;4.73;;;3.50;;
16512;SDS011;8369;48.030;11.598;2022-09-16T18:17:42;3.83;;;3.37;;
16512;SDS011;8369;48.030;11.598;2022-09-16T18:20:08;4.93;;;3.90;;
16512;SDS011;8369;48.030;11.598;2022-09-16T18:22:35;5.03;;;3.97;;
16512;SDS011;8369;48.030;11.598;2022-09-16T18:25:02;5.40;;;3.70;;
16512;SDS011;8369;48.030;11.598;2022-09-16T18:27:28;5.87;;;3.57;;
16512;SDS011;8369;48.030;11.598;2022-09-16T18:29:54;5.37;;;3.37;;